createdAt,value
2023-03-16T00:02:58.850Z,32.60
2023-03-16T00:06:08.728Z,32.60
2023-03-16T00:09:17.433Z,32.70
2023-03-16T00:12:26.283Z,32.60
2023-03-16T00:15:35.427Z,32.60
2023-03-16T00:18:43.419Z,32.60
2023-03-16T00:21:52.744Z,32.60
2023-03-16T00:25:01.050Z,32.60
2023-03-16T00:28:08.931Z,32.60
2023-03-16T00:31:17.325Z,32.70
2023-03-16T00:34:25.316Z,33.30
2023-03-16T00:37:34.914Z,32.60
2023-03-16T00:40:43.170Z,32.60
2023-03-16T00:43:51.798Z,32.60
2023-03-16T00:46:59.836Z,32.60
2023-03-16T00:50:08.619Z,32.60
2023-03-16T00:53:17.904Z,32.60
2023-03-16T00:56:25.785Z,32.60
2023-03-16T00:59:37.807Z,32.60
2023-03-16T01:02:46.642Z,32.60
2023-03-16T01:05:54.585Z,32.60
2023-03-16T01:09:05.748Z,32.60
2023-03-16T01:12:15.582Z,33.20
2023-03-16T01:15:24.673Z,32.60
2023-03-16T01:18:34.254Z,32.60
2023-03-16T01:21:42.591Z,32.60
2023-03-16T01:24:53.449Z,32.60
2023-03-16T01:28:03.635Z,32.60
2023-03-16T01:31:14.414Z,32.60
2023-03-16T01:34:23.077Z,32.50
2023-03-16T01:37:31.719Z,32.60
2023-03-16T01:40:43.570Z,32.50
2023-03-16T01:43:53.704Z,32.60
2023-03-16T01:47:01.820Z,32.50
2023-03-16T01:50:10.385Z,32.50
2023-03-16T01:53:22.026Z,32.50
2023-03-16T01:56:34.992Z,32.50
2023-03-16T01:59:45.572Z,32.50
2023-03-16T02:02:56.108Z,32.50
2023-03-16T02:06:12.901Z,32.50
2023-03-16T02:09:26.085Z,32.50
2023-03-16T02:12:36.226Z,32.50
2023-03-16T02:15:45.227Z,32.50
2023-03-16T02:18:53.368Z,32.50
2023-03-16T02:22:03.908Z,33.10
2023-03-16T02:25:12.974Z,32.50
2023-03-16T02:28:25.404Z,32.50
2023-03-16T02:31:35.251Z,32.40
2023-03-16T02:34:44.554Z,32.40
2023-03-16T02:37:54.289Z,32.50
2023-03-16T02:41:11.881Z,32.50
2023-03-16T02:44:24.269Z,32.40
2023-03-16T02:47:37.154Z,32.40
2023-03-16T02:50:48.203Z,32.30
2023-03-16T02:53:56.624Z,32.30
2023-03-16T02:57:06.156Z,32.30
2023-03-16T03:00:18.630Z,32.30
2023-03-16T03:03:34.314Z,32.30
2023-03-16T03:06:42.832Z,32.30
2023-03-16T03:09:53.558Z,32.30
2023-03-16T03:13:01.934Z,32.30
2023-03-16T03:16:10.248Z,32.20
2023-03-16T03:19:20.441Z,32.20
2023-03-16T03:22:28.686Z,32.20
2023-03-16T03:25:36.866Z,32.20
2023-03-16T03:28:45.794Z,32.20
2023-03-16T03:31:54.883Z,32.20
2023-03-16T03:35:04.439Z,32.10
2023-03-16T03:38:12.597Z,32.10
2023-03-16T03:41:24.744Z,32.10
2023-03-16T03:44:34.688Z,32.10
2023-03-16T03:47:43.773Z,32.20
2023-03-16T03:50:57.833Z,32.20
2023-03-16T03:54:14.686Z,32.20
2023-03-16T03:57:25.065Z,32.20
2023-03-16T04:00:33.470Z,32.20
2023-03-16T04:03:43.489Z,32.20
2023-03-16T04:06:56.401Z,32.20
2023-03-16T04:10:04.818Z,32.30
2023-03-16T04:13:18.347Z,32.20
2023-03-16T04:16:27.203Z,32.10
2023-03-16T04:19:37.545Z,32.20
2023-03-16T04:22:58.344Z,32.20
2023-03-16T04:26:07.001Z,32.20
2023-03-16T04:29:18.117Z,32.20
2023-03-16T04:32:26.996Z,32.20
2023-03-16T04:35:36.046Z,32.20
2023-03-16T04:38:45.440Z,32.20
2023-03-16T04:41:54.362Z,32.20
2023-03-16T04:45:08.610Z,32.20
2023-03-16T04:48:16.903Z,32.20
2023-03-16T04:51:26.223Z,32.20
2023-03-16T04:54:46.725Z,32.20
2023-03-16T04:57:57.325Z,32.20
2023-03-16T05:01:06.765Z,32.20
2023-03-16T05:04:19.532Z,32.20
2023-03-16T05:07:28.958Z,32.20
2023-03-16T05:10:39.596Z,32.20
2023-03-16T05:13:47.714Z,32.20
2023-03-16T05:16:56.855Z,32.20
2023-03-16T05:20:08.417Z,32.80
2023-03-16T05:23:19.982Z,32.20
2023-03-16T05:26:34.157Z,32.20
2023-03-16T05:29:46.072Z,32.20
2023-03-16T05:32:56.940Z,32.20
2023-03-16T05:36:07.079Z,32.20
2023-03-16T05:39:16.625Z,32.10
2023-03-16T05:42:30.552Z,32.10
2023-03-16T05:45:44.072Z,32.10
2023-03-16T05:48:55.649Z,32.00
2023-03-16T05:52:05.240Z,32.00
2023-03-16T05:55:16.987Z,32.00
2023-03-16T05:58:28.621Z,32.00
2023-03-16T06:01:37.371Z,32.00
2023-03-16T06:04:46.458Z,32.00
2023-03-16T06:07:54.849Z,32.00
2023-03-16T06:11:04.886Z,32.00
2023-03-16T06:14:14.670Z,32.20
2023-03-16T06:17:23.620Z,32.50
2023-03-16T06:20:32.026Z,32.50
2023-03-16T06:23:40.232Z,32.80
2023-03-16T06:26:50.173Z,32.80
2023-03-16T06:30:01.716Z,33.40
2023-03-16T06:33:10.940Z,33.70
2023-03-16T06:36:19.123Z,33.70
2023-03-16T06:39:32.812Z,34.30
2023-03-16T06:42:41.181Z,33.90
2023-03-16T06:45:54.258Z,34.00
2023-03-16T06:49:04.317Z,34.10
2023-03-16T06:52:13.757Z,34.00
2023-03-16T06:55:21.988Z,34.10
2023-03-16T06:58:31.270Z,34.20
2023-03-16T07:01:40.643Z,34.20
2023-03-16T07:04:48.812Z,34.00
2023-03-16T07:07:59.123Z,34.00
2023-03-16T07:11:07.324Z,34.00
2023-03-16T07:14:16.616Z,34.00
2023-03-16T07:17:26.804Z,34.00
2023-03-16T07:20:35.310Z,34.00
2023-03-16T07:23:46.710Z,33.90
2023-03-16T07:26:59.114Z,33.80
2023-03-16T07:30:15.116Z,33.90
2023-03-16T07:33:27.927Z,33.80
2023-03-16T07:36:36.418Z,33.60
2023-03-16T07:39:45.388Z,33.50
2023-03-16T07:42:58.958Z,33.50
2023-03-16T07:46:10.608Z,33.40
2023-03-16T07:49:20.191Z,33.40
2023-03-16T07:52:29.363Z,33.30
2023-03-16T07:55:39.059Z,33.30
2023-03-16T07:58:49.449Z,33.20
2023-03-16T08:01:57.836Z,33.20
2023-03-16T08:05:10.432Z,33.10
2023-03-16T08:08:22.326Z,33.10
2023-03-16T08:11:31.048Z,33.10
2023-03-16T08:14:45.406Z,33.10
2023-03-16T08:17:59.226Z,33.10
2023-03-16T08:21:09.888Z,33.00
2023-03-16T08:24:18.569Z,33.00
2023-03-16T08:27:29.555Z,33.00
2023-03-16T08:30:46.813Z,33.00
2023-03-16T08:34:08.792Z,32.90
2023-03-16T08:37:24.112Z,32.90
2023-03-16T08:40:34.917Z,32.90
2023-03-16T08:43:44.599Z,32.80
2023-03-16T08:46:53.078Z,32.70
2023-03-16T08:50:02.412Z,32.70
2023-03-16T08:53:12.254Z,32.70
2023-03-16T08:56:20.776Z,32.60
2023-03-16T08:59:30.618Z,32.60
2023-03-16T09:02:39.107Z,32.50
2023-03-16T09:05:47.614Z,32.40
2023-03-16T09:08:57.380Z,32.40
2023-03-16T09:12:06.574Z,32.30
2023-03-16T09:15:14.891Z,32.30
2023-03-16T09:18:23.381Z,32.20
2023-03-16T09:21:31.406Z,32.20
2023-03-16T09:24:41.528Z,32.10
2023-03-16T09:27:49.720Z,32.10
2023-03-16T09:30:58.096Z,32.00
2023-03-16T09:34:06.240Z,32.00
2023-03-16T09:37:14.503Z,32.00
2023-03-16T09:40:25.172Z,32.60
2023-03-16T09:44:00.400Z,32.00
2023-03-16T09:47:11.100Z,32.00
2023-03-16T09:50:23.059Z,31.90
2023-03-16T09:53:32.742Z,31.90
2023-03-16T09:56:42.852Z,31.90
2023-03-16T09:59:51.027Z,31.80
2023-03-16T10:03:11.316Z,31.80
2023-03-16T10:06:19.517Z,31.70
2023-03-16T10:09:33.110Z,31.70
2023-03-16T10:12:44.598Z,31.70
2023-03-16T10:15:53.402Z,31.70
2023-03-16T10:19:03.158Z,31.70
2023-03-16T10:22:17.529Z,31.70
2023-03-16T10:25:28.894Z,31.70
2023-03-16T10:28:38.675Z,31.60
2023-03-16T10:31:47.474Z,31.60
2023-03-16T10:34:58.392Z,31.60
2023-03-16T10:38:06.292Z,31.60
2023-03-16T10:41:25.806Z,31.50
2023-03-16T10:44:41.120Z,31.50
2023-03-16T10:47:49.052Z,31.50
2023-03-16T10:50:58.177Z,31.40
2023-03-16T10:54:10.944Z,31.40
2023-03-16T10:57:25.578Z,31.40
2023-03-16T11:00:38.744Z,31.40
2023-03-16T11:03:51.099Z,31.40
2023-03-16T11:06:59.215Z,31.40
2023-03-16T11:10:15.014Z,31.40
2023-03-16T11:13:24.555Z,31.40
2023-03-16T11:16:37.105Z,31.40
2023-03-16T11:19:50.511Z,31.40
2023-03-16T11:22:58.676Z,31.40
2023-03-16T11:26:09.122Z,31.40
2023-03-16T11:29:20.422Z,31.40
2023-03-16T11:32:32.223Z,31.40
2023-03-16T11:35:58.072Z,31.40
2023-03-16T11:39:12.712Z,31.40
2023-03-16T11:42:35.598Z,31.40
2023-03-16T11:45:48.329Z,31.40
2023-03-16T11:49:07.639Z,31.40
2023-03-16T11:52:18.593Z,31.50
2023-03-16T11:55:30.742Z,31.40
2023-03-16T11:58:47.344Z,31.40
2023-03-16T12:02:05.146Z,31.50
2023-03-16T12:05:39.707Z,31.40
2023-03-16T12:09:10.586Z,31.40
2023-03-16T12:12:35.588Z,31.40
2023-03-16T12:15:45.026Z,31.40
2023-03-16T12:18:54.213Z,31.40
2023-03-16T12:22:08.752Z,31.40
2023-03-16T12:25:20.501Z,31.40
2023-03-16T12:28:29.847Z,31.40
2023-03-16T12:31:41.371Z,31.40
2023-03-16T12:34:50.224Z,31.40
2023-03-16T12:38:07.729Z,31.40
2023-03-16T12:41:24.727Z,31.40
2023-03-16T12:44:34.625Z,31.40
2023-03-16T12:47:48.415Z,31.40
2023-03-16T12:50:57.532Z,31.40
2023-03-16T12:54:08.181Z,31.40
2023-03-16T12:57:17.228Z,31.40
2023-03-16T13:00:34.667Z,31.40
2023-03-16T13:03:43.014Z,31.30
2023-03-16T13:06:52.188Z,31.30
2023-03-16T13:10:03.743Z,31.30
2023-03-16T13:13:12.978Z,31.20
2023-03-16T13:16:27.308Z,31.30
2023-03-16T13:19:37.906Z,31.20
2023-03-16T13:22:47.309Z,31.20
2023-03-16T13:26:12.383Z,31.20
2023-03-16T13:29:25.592Z,31.20
2023-03-16T13:32:34.737Z,31.20
2023-03-16T13:35:42.693Z,31.20
2023-03-16T13:38:58.561Z,31.20
2023-03-16T13:42:17.870Z,31.20
2023-03-16T13:45:29.542Z,31.10
2023-03-16T13:48:40.224Z,31.20
2023-03-16T13:51:48.444Z,31.10
2023-03-16T13:54:56.374Z,31.10
2023-03-16T13:58:05.851Z,31.10
2023-03-16T14:01:18.405Z,31.10
2023-03-16T14:04:28.706Z,31.10
2023-03-16T14:07:38.255Z,31.00
2023-03-16T14:10:46.843Z,31.00
2023-03-16T14:13:57.272Z,31.00
2023-03-16T14:17:09.797Z,31.00
2023-03-16T14:20:20.343Z,31.10
2023-03-16T14:23:31.481Z,31.00
2023-03-16T14:26:43.319Z,31.00
2023-03-16T14:30:01.077Z,31.00
2023-03-16T14:33:32.528Z,31.00
2023-03-16T14:36:40.602Z,31.10
2023-03-16T14:39:59.272Z,31.10
2023-03-16T14:43:09.640Z,31.00
2023-03-16T14:46:20.789Z,31.10
2023-03-16T14:49:29.693Z,31.00
2023-03-16T14:52:37.933Z,31.00
2023-03-16T14:55:46.040Z,31.00
2023-03-16T14:58:54.100Z,31.00
2023-03-16T15:02:04.247Z,31.00
2023-03-16T15:05:17.196Z,31.00
2023-03-16T15:08:27.217Z,31.00
2023-03-16T15:11:35.461Z,30.90
2023-03-16T15:15:00.775Z,30.90
2023-03-16T15:18:10.780Z,30.90
2023-03-16T15:21:20.654Z,30.90
2023-03-16T15:24:29.065Z,31.00
2023-03-16T15:27:37.377Z,31.00
2023-03-16T15:30:45.982Z,31.00
2023-03-16T15:33:55.289Z,31.00
2023-03-16T15:37:03.279Z,31.00
2023-03-16T15:40:16.898Z,31.00
2023-03-16T15:43:25.557Z,31.00
2023-03-16T15:46:33.881Z,31.00
2023-03-16T15:49:47.875Z,31.00
2023-03-16T15:52:58.141Z,31.00
2023-03-16T15:56:07.055Z,31.00
2023-03-16T15:59:16.930Z,31.00
2023-03-16T16:02:28.116Z,31.00
2023-03-16T16:05:37.892Z,30.90
2023-03-16T16:08:46.384Z,30.90
2023-03-16T16:11:54.468Z,30.90
2023-03-16T16:15:02.539Z,30.90
2023-03-16T16:18:25.282Z,30.90
2023-03-16T16:21:35.071Z,30.90
2023-03-16T16:24:43.615Z,30.80
2023-03-16T16:27:51.962Z,30.80
2023-03-16T16:31:00.684Z,30.80
2023-03-16T16:34:13.040Z,30.80
2023-03-16T16:37:22.379Z,30.70
2023-03-16T16:40:45.775Z,30.70
2023-03-16T16:43:54.077Z,30.70
2023-03-16T16:47:03.399Z,30.70
2023-03-16T16:50:16.770Z,30.70
2023-03-16T16:53:26.125Z,30.60
2023-03-16T16:56:35.464Z,30.60
2023-03-16T16:59:46.996Z,30.50
2023-03-16T17:02:57.609Z,30.50
2023-03-16T17:06:06.877Z,30.50
2023-03-16T17:09:16.183Z,30.40
2023-03-16T17:12:24.171Z,30.40
2023-03-16T17:15:32.847Z,30.30
2023-03-16T17:18:40.962Z,30.30
2023-03-16T17:21:49.043Z,30.30
2023-03-16T17:24:59.442Z,30.30
2023-03-16T17:28:07.677Z,30.20
2023-03-16T17:31:17.570Z,30.80
2023-03-16T17:34:26.561Z,30.30
2023-03-16T17:37:34.511Z,30.30
2023-03-16T17:40:43.786Z,30.90
2023-03-16T17:43:51.898Z,30.30
2023-03-16T17:46:59.811Z,30.30
2023-03-16T17:50:16.872Z,30.20
2023-03-16T17:53:25.085Z,30.30
2023-03-16T17:56:35.312Z,30.20
2023-03-16T17:59:43.257Z,30.20
2023-03-16T18:02:53.767Z,30.20
2023-03-16T18:06:01.895Z,30.80
2023-03-16T18:09:11.014Z,30.20
2023-03-16T18:12:20.685Z,30.30
2023-03-16T18:15:32.207Z,30.40
2023-03-16T18:18:41.552Z,30.40
2023-03-16T18:21:50.068Z,30.30
2023-03-16T18:24:57.915Z,30.30
2023-03-16T18:28:08.360Z,30.20
2023-03-16T18:31:21.478Z,30.40
2023-03-16T18:34:31.375Z,30.80
2023-03-16T18:37:39.620Z,31.40
2023-03-16T18:40:47.743Z,32.30
2023-03-16T18:43:58.004Z,32.60
2023-03-16T18:47:06.084Z,32.80
2023-03-16T18:50:21.512Z,32.90
2023-03-16T18:53:29.668Z,32.80
2023-03-16T18:56:41.625Z,32.80
2023-03-16T18:59:51.159Z,32.80
2023-03-16T19:03:01.328Z,32.80
2023-03-16T19:06:10.504Z,32.70
2023-03-16T19:09:19.708Z,32.60
2023-03-16T19:12:28.258Z,33.20
2023-03-16T19:15:39.292Z,32.50
2023-03-16T19:18:47.353Z,32.40
2023-03-16T19:21:56.381Z,32.30
2023-03-16T19:25:04.963Z,32.30
2023-03-16T19:28:14.954Z,32.20
2023-03-16T19:31:26.406Z,32.10
2023-03-16T19:34:34.498Z,32.00
2023-03-16T19:37:42.897Z,32.50
2023-03-16T19:40:53.093Z,31.90
2023-03-16T19:44:04.872Z,31.80
2023-03-16T19:47:20.966Z,31.80
2023-03-16T19:50:29.501Z,31.70
2023-03-16T19:53:37.766Z,31.60
2023-03-16T19:56:45.813Z,31.60
2023-03-16T19:59:56.526Z,31.60
2023-03-16T20:03:06.159Z,31.60
2023-03-16T20:06:14.900Z,31.50
2023-03-16T20:09:23.246Z,31.60
2023-03-16T20:12:31.845Z,31.50
2023-03-16T20:15:39.713Z,32.00
2023-03-16T20:18:49.424Z,31.30
2023-03-16T20:21:57.314Z,31.20
2023-03-16T20:25:06.392Z,31.20
2023-03-16T20:28:18.412Z,31.10
2023-03-16T20:31:29.644Z,31.10
2023-03-16T20:34:39.409Z,31.00
2023-03-16T20:37:47.542Z,31.00
2023-03-16T20:40:55.950Z,31.00
2023-03-16T20:44:04.886Z,30.90
2023-03-16T20:47:14.876Z,30.90
2023-03-16T20:50:26.185Z,30.90
2023-03-16T20:53:34.240Z,30.90
2023-03-16T20:56:42.509Z,30.80
2023-03-16T20:59:51.593Z,30.80
2023-03-16T21:02:59.812Z,30.70
2023-03-16T21:06:11.560Z,30.70
2023-03-16T21:09:19.931Z,30.70
2023-03-16T21:12:29.050Z,30.70
2023-03-16T21:15:37.130Z,30.70
2023-03-16T21:18:45.274Z,30.80
2023-03-16T21:21:54.665Z,30.80
2023-03-16T21:25:02.730Z,30.70
2023-03-16T21:28:11.660Z,30.70
2023-03-16T21:31:19.935Z,30.70
2023-03-16T21:34:29.644Z,30.80
2023-03-16T21:37:38.957Z,30.70
2023-03-16T21:40:47.737Z,30.70
2023-03-16T21:43:55.925Z,30.80
2023-03-16T21:47:04.277Z,30.80
2023-03-16T21:50:15.587Z,30.80
2023-03-16T21:53:25.706Z,30.90
2023-03-16T21:56:34.024Z,30.90
2023-03-16T21:59:42.241Z,30.90
2023-03-16T22:02:51.823Z,30.90
2023-03-16T22:06:00.500Z,31.00
2023-03-16T22:09:13.278Z,31.00
2023-03-16T22:12:21.536Z,31.00
2023-03-16T22:15:30.072Z,31.10
2023-03-16T22:18:38.271Z,31.00
2023-03-16T22:21:46.549Z,31.00
2023-03-16T22:24:56.093Z,31.00
2023-03-16T22:28:07.188Z,31.00
2023-03-16T22:31:16.485Z,31.00
2023-03-16T22:34:30.328Z,31.00
2023-03-16T22:37:38.106Z,31.00
2023-03-16T22:40:47.336Z,31.00
2023-03-16T22:43:55.298Z,31.00
2023-03-16T22:47:03.207Z,31.10
2023-03-16T22:50:14.290Z,31.10
2023-03-16T22:53:24.754Z,31.10
2023-03-16T22:56:34.201Z,31.00
2023-03-16T22:59:42.478Z,31.00
2023-03-16T23:02:50.671Z,31.00
2023-03-16T23:05:58.620Z,31.00
2023-03-16T23:09:06.541Z,31.00
2023-03-16T23:12:16.892Z,31.10
2023-03-16T23:15:27.741Z,31.10
2023-03-16T23:18:36.405Z,31.00
2023-03-16T23:21:44.744Z,31.00
2023-03-16T23:24:52.737Z,31.00
2023-03-16T23:28:02.704Z,31.00
2023-03-16T23:31:12.199Z,31.00
2023-03-16T23:34:22.554Z,31.00
2023-03-16T23:37:30.812Z,31.00
2023-03-16T23:40:39.186Z,31.00
2023-03-16T23:43:48.463Z,31.00
2023-03-16T23:46:56.794Z,31.00
2023-03-16T23:50:06.042Z,31.00
2023-03-16T23:53:15.195Z,31.00
2023-03-16T23:56:23.728Z,31.00
2023-03-16T23:59:33.190Z,31.00
